Archival Weather

Tokyo Intl

Tokyo, Japan (RJTT)

Report from: Sunday, March 19, 2023 12:00 AM JST
Current time: Wednesday, May 29, 2024 4:46 PM JST

Current weather – Weather history – Daily summaries
Weather forecast

Temperature9.0°C (48.2°F)
Wind chill6.1°C (43.0°F)
Dew point5.0°C (41.0°F)
Winds 11 kts (5.7 m/s, 12.7 mph) East-Northeast (60°)
Visibility6.2 mi. (10 km)
Clouds Few clouds 1,500 ft. (457 m)
Ceiling: Broken clouds 9,000 ft. (2,743 m)
Altimeter29.88 in.Hg (1012 mB)
Relative humidity76 %
Density altitude-549 ft. (-167 m)
Remarks No significant changes expected in the next two hours
Flight conditions Visual Meteorological Conditions
Raw dataRJTT 181500Z 06011KT 9999 FEW015 BKN090 09/05 Q1012 NOSIG
An error has occurred. This application may no longer respond until reloaded. Reload 🗙